sensor_id;sensor_type;location;lat;lon;timestamp;temperature;humidity
28845;DHT22;15976;47.938;7.758;2023-07-13T00:01:54;22.80;58.80
28845;DHT22;15976;47.938;7.758;2023-07-13T00:04:24;22.70;58.40
28845;DHT22;15976;47.938;7.758;2023-07-13T00:06:52;22.70;58.00
28845;DHT22;15976;47.938;7.758;2023-07-13T00:09:20;22.70;57.80
28845;DHT22;15976;47.938;7.758;2023-07-13T00:11:54;22.70;57.50
28845;DHT22;15976;47.938;7.758;2023-07-13T00:14:22;22.60;57.40
28845;DHT22;15976;47.938;7.758;2023-07-13T00:16:49;22.50;57.10
28845;DHT22;15976;47.938;7.758;2023-07-13T00:19:17;22.50;57.20
28845;DHT22;15976;47.938;7.758;2023-07-13T00:21:44;22.50;57.20
28845;DHT22;15976;47.938;7.758;2023-07-13T00:24:13;22.60;57.40
28845;DHT22;15976;47.938;7.758;2023-07-13T00:26:41;22.60;58.20
28845;DHT22;15976;47.938;7.758;2023-07-13T00:29:12;22.60;59.50
28845;DHT22;15976;47.938;7.758;2023-07-13T00:31:39;22.50;60.50
28845;DHT22;15976;47.938;7.758;2023-07-13T00:34:07;22.40;61.10
28845;DHT22;15976;47.938;7.758;2023-07-13T00:36:34;22.40;62.60
28845;DHT22;15976;47.938;7.758;2023-07-13T00:39:01;22.30;63.20
28845;DHT22;15976;47.938;7.758;2023-07-13T00:41:30;22.10;63.10
28845;DHT22;15976;47.938;7.758;2023-07-13T00:43:58;22.00;63.40
28845;DHT22;15976;47.938;7.758;2023-07-13T00:46:26;21.90;64.20
28845;DHT22;15976;47.938;7.758;2023-07-13T00:49:00;21.80;64.70
28845;DHT22;15976;47.938;7.758;2023-07-13T00:51:32;21.90;65.70
28845;DHT22;15976;47.938;7.758;2023-07-13T00:54:05;21.80;66.20
28845;DHT22;15976;47.938;7.758;2023-07-13T00:56:33;21.80;66.30
28845;DHT22;15976;47.938;7.758;2023-07-13T00:59:02;21.80;66.20
28845;DHT22;15976;47.938;7.758;2023-07-13T01:01:30;21.70;66.00
28845;DHT22;15976;47.938;7.758;2023-07-13T01:03:58;21.60;66.40
28845;DHT22;15976;47.938;7.758;2023-07-13T01:06:25;21.60;67.00
28845;DHT22;15976;47.938;7.758;2023-07-13T01:08:52;21.60;67.40
28845;DHT22;15976;47.938;7.758;2023-07-13T01:11:21;21.60;67.20
28845;DHT22;15976;47.938;7.758;2023-07-13T01:13:51;21.60;67.10
28845;DHT22;15976;47.938;7.758;2023-07-13T01:16:26;21.60;67.00
28845;DHT22;15976;47.938;7.758;2023-07-13T01:18:54;21.60;67.00
28845;DHT22;15976;47.938;7.758;2023-07-13T01:21:25;21.60;66.70
28845;DHT22;15976;47.938;7.758;2023-07-13T01:23:53;21.50;66.50
28845;DHT22;15976;47.938;7.758;2023-07-13T01:26:20;21.50;66.50
28845;DHT22;15976;47.938;7.758;2023-07-13T01:28:47;21.40;66.20
28845;DHT22;15976;47.938;7.758;2023-07-13T01:31:15;21.30;66.30
28845;DHT22;15976;47.938;7.758;2023-07-13T01:33:42;21.30;66.70
28845;DHT22;15976;47.938;7.758;2023-07-13T01:36:10;21.30;66.60
28845;DHT22;15976;47.938;7.758;2023-07-13T01:38:37;21.30;66.80
28845;DHT22;15976;47.938;7.758;2023-07-13T01:41:04;21.40;66.40
28845;DHT22;15976;47.938;7.758;2023-07-13T01:43:31;21.30;66.20
28845;DHT22;15976;47.938;7.758;2023-07-13T01:45:59;21.30;66.60
28845;DHT22;15976;47.938;7.758;2023-07-13T01:48:46;21.30;66.90
28845;DHT22;15976;47.938;7.758;2023-07-13T01:51:13;21.40;66.50
28845;DHT22;15976;47.938;7.758;2023-07-13T01:53:40;21.40;65.80
28845;DHT22;15976;47.938;7.758;2023-07-13T01:56:07;21.40;65.60
28845;DHT22;15976;47.938;7.758;2023-07-13T01:58:35;21.40;65.40
28845;DHT22;15976;47.938;7.758;2023-07-13T02:01:02;21.30;65.50
28845;DHT22;15976;47.938;7.758;2023-07-13T02:03:29;21.30;65.30
28845;DHT22;15976;47.938;7.758;2023-07-13T02:05:58;21.20;65.40
28845;DHT22;15976;47.938;7.758;2023-07-13T02:08:25;21.20;65.90
28845;DHT22;15976;47.938;7.758;2023-07-13T02:10:52;21.20;65.90
28845;DHT22;15976;47.938;7.758;2023-07-13T02:13:19;21.20;66.30
28845;DHT22;15976;47.938;7.758;2023-07-13T02:15:49;21.10;65.30
28845;DHT22;15976;47.938;7.758;2023-07-13T02:18:16;21.10;65.10
28845;DHT22;15976;47.938;7.758;2023-07-13T02:20:44;21.10;65.40
28845;DHT22;15976;47.938;7.758;2023-07-13T02:23:11;21.10;65.50
28845;DHT22;15976;47.938;7.758;2023-07-13T02:25:39;21.00;65.50
28845;DHT22;15976;47.938;7.758;2023-07-13T02:28:08;21.10;65.30
28845;DHT22;15976;47.938;7.758;2023-07-13T02:30:35;21.00;65.80
28845;DHT22;15976;47.938;7.758;2023-07-13T02:33:02;21.10;64.80
28845;DHT22;15976;47.938;7.758;2023-07-13T02:35:30;21.00;64.40
28845;DHT22;15976;47.938;7.758;2023-07-13T02:37:58;20.90;63.70
28845;DHT22;15976;47.938;7.758;2023-07-13T02:40:25;20.90;63.40
28845;DHT22;15976;47.938;7.758;2023-07-13T02:42:52;20.90;63.60
28845;DHT22;15976;47.938;7.758;2023-07-13T02:45:19;20.90;63.70
28845;DHT22;15976;47.938;7.758;2023-07-13T02:47:46;20.90;63.70
28845;DHT22;15976;47.938;7.758;2023-07-13T02:50:14;20.90;63.50
28845;DHT22;15976;47.938;7.758;2023-07-13T02:52:41;20.80;63.40
28845;DHT22;15976;47.938;7.758;2023-07-13T02:55:08;20.80;63.30
28845;DHT22;15976;47.938;7.758;2023-07-13T02:57:36;20.80;63.00
28845;DHT22;15976;47.938;7.758;2023-07-13T03:00:04;20.80;63.40
28845;DHT22;15976;47.938;7.758;2023-07-13T03:02:33;20.80;63.60
28845;DHT22;15976;47.938;7.758;2023-07-13T03:05:01;20.70;63.00
28845;DHT22;15976;47.938;7.758;2023-07-13T03:07:30;20.70;62.70
28845;DHT22;15976;47.938;7.758;2023-07-13T03:09:58;20.60;62.70
28845;DHT22;15976;47.938;7.758;2023-07-13T03:12:34;20.50;62.50
28845;DHT22;15976;47.938;7.758;2023-07-13T03:15:05;20.40;62.30
28845;DHT22;15976;47.938;7.758;2023-07-13T03:17:35;20.40;62.20
28845;DHT22;15976;47.938;7.758;2023-07-13T03:20:03;20.40;62.10
28845;DHT22;15976;47.938;7.758;2023-07-13T03:22:31;20.30;62.30
28845;DHT22;15976;47.938;7.758;2023-07-13T03:24:58;20.30;62.00
28845;DHT22;15976;47.938;7.758;2023-07-13T03:27:26;20.30;62.80
28845;DHT22;15976;47.938;7.758;2023-07-13T03:29:54;20.30;62.30
28845;DHT22;15976;47.938;7.758;2023-07-13T03:32:22;20.30;62.60
28845;DHT22;15976;47.938;7.758;2023-07-13T03:34:49;20.40;62.60
28845;DHT22;15976;47.938;7.758;2023-07-13T03:37:16;20.40;62.50
28845;DHT22;15976;47.938;7.758;2023-07-13T03:39:44;20.40;62.70
28845;DHT22;15976;47.938;7.758;2023-07-13T03:42:11;20.40;62.80
28845;DHT22;15976;47.938;7.758;2023-07-13T03:44:39;20.40;62.90
28845;DHT22;15976;47.938;7.758;2023-07-13T03:47:06;20.40;62.60
28845;DHT22;15976;47.938;7.758;2023-07-13T03:49:36;20.40;62.60
28845;DHT22;15976;47.938;7.758;2023-07-13T03:52:03;20.30;63.00
28845;DHT22;15976;47.938;7.758;2023-07-13T03:54:31;20.30;63.60
28845;DHT22;15976;47.938;7.758;2023-07-13T03:57:00;20.30;63.80
28845;DHT22;15976;47.938;7.758;2023-07-13T03:59:30;20.20;63.60
28845;DHT22;15976;47.938;7.758;2023-07-13T04:01:57;20.20;63.70
28845;DHT22;15976;47.938;7.758;2023-07-13T04:04:24;20.20;63.80
28845;DHT22;15976;47.938;7.758;2023-07-13T04:06:52;20.20;64.00
28845;DHT22;15976;47.938;7.758;2023-07-13T04:09:20;20.20;64.90
28845;DHT22;15976;47.938;7.758;2023-07-13T04:11:47;20.20;64.00
28845;DHT22;15976;47.938;7.758;2023-07-13T04:14:14;20.30;64.40
28845;DHT22;15976;47.938;7.758;2023-07-13T04:16:42;20.30;64.60
28845;DHT22;15976;47.938;7.758;2023-07-13T04:19:10;20.30;65.40
28845;DHT22;15976;47.938;7.758;2023-07-13T04:21:37;20.40;64.60
28845;DHT22;15976;47.938;7.758;2023-07-13T04:24:04;20.50;64.50
28845;DHT22;15976;47.938;7.758;2023-07-13T04:26:32;20.50;64.40
28845;DHT22;15976;47.938;7.758;2023-07-13T04:29:02;20.50;64.30
28845;DHT22;15976;47.938;7.758;2023-07-13T04:31:31;20.60;64.20
28845;DHT22;15976;47.938;7.758;2023-07-13T04:33:58;20.60;63.90
28845;DHT22;15976;47.938;7.758;2023-07-13T04:36:26;20.60;64.10
28845;DHT22;15976;47.938;7.758;2023-07-13T04:38:56;20.50;64.20
28845;DHT22;15976;47.938;7.758;2023-07-13T04:41:23;20.50;64.40
28845;DHT22;15976;47.938;7.758;2023-07-13T04:43:50;20.50;64.30
28845;DHT22;15976;47.938;7.758;2023-07-13T04:46:17;20.50;64.50
28845;DHT22;15976;47.938;7.758;2023-07-13T04:48:48;20.50;64.60
28845;DHT22;15976;47.938;7.758;2023-07-13T04:51:16;20.40;64.70
28845;DHT22;15976;47.938;7.758;2023-07-13T04:53:43;20.40;64.50
28845;DHT22;15976;47.938;7.758;2023-07-13T04:56:10;20.40;64.30
28845;DHT22;15976;47.938;7.758;2023-07-13T04:58:37;20.40;64.30
28845;DHT22;15976;47.938;7.758;2023-07-13T05:01:06;20.40;64.10
28845;DHT22;15976;47.938;7.758;2023-07-13T05:03:33;20.40;64.40
28845;DHT22;15976;47.938;7.758;2023-07-13T05:06:04;20.40;64.60
28845;DHT22;15976;47.938;7.758;2023-07-13T05:08:32;20.40;64.10
28845;DHT22;15976;47.938;7.758;2023-07-13T05:11:00;20.40;63.80
28845;DHT22;15976;47.938;7.758;2023-07-13T05:13:28;20.40;63.60
28845;DHT22;15976;47.938;7.758;2023-07-13T05:16:02;20.40;63.60
28845;DHT22;15976;47.938;7.758;2023-07-13T05:18:30;20.40;62.90
28845;DHT22;15976;47.938;7.758;2023-07-13T05:20:58;20.40;62.60
28845;DHT22;15976;47.938;7.758;2023-07-13T05:23:26;20.50;62.50
28845;DHT22;15976;47.938;7.758;2023-07-13T05:25:53;20.50;62.70
28845;DHT22;15976;47.938;7.758;2023-07-13T05:28:21;20.60;62.80
28845;DHT22;15976;47.938;7.758;2023-07-13T05:30:49;20.60;62.30
28845;DHT22;15976;47.938;7.758;2023-07-13T05:33:17;20.70;62.10
28845;DHT22;15976;47.938;7.758;2023-07-13T05:35:44;20.80;61.50
28845;DHT22;15976;47.938;7.758;2023-07-13T05:38:12;20.80;61.20
28845;DHT22;15976;47.938;7.758;2023-07-13T05:40:39;20.80;61.60
28845;DHT22;15976;47.938;7.758;2023-07-13T05:43:06;20.80;63.00
28845;DHT22;15976;47.938;7.758;2023-07-13T05:45:33;20.80;62.80
28845;DHT22;15976;47.938;7.758;2023-07-13T05:48:00;20.80;62.40
28845;DHT22;15976;47.938;7.758;2023-07-13T05:50:28;20.70;62.50
28845;DHT22;15976;47.938;7.758;2023-07-13T05:52:54;20.70;62.80
28845;DHT22;15976;47.938;7.758;2023-07-13T05:55:23;20.80;63.10
28845;DHT22;15976;47.938;7.758;2023-07-13T05:57:50;20.80;62.70
28845;DHT22;15976;47.938;7.758;2023-07-13T06:00:18;20.90;62.60
28845;DHT22;15976;47.938;7.758;2023-07-13T06:02:45;21.00;62.60
28845;DHT22;15976;47.938;7.758;2023-07-13T06:05:12;21.10;62.80
28845;DHT22;15976;47.938;7.758;2023-07-13T06:07:39;21.10;63.10
28845;DHT22;15976;47.938;7.758;2023-07-13T06:10:06;21.30;62.40
28845;DHT22;15976;47.938;7.758;2023-07-13T06:12:34;21.40;61.40
28845;DHT22;15976;47.938;7.758;2023-07-13T06:15:01;21.50;60.80
28845;DHT22;15976;47.938;7.758;2023-07-13T06:17:28;21.60;60.10
28845;DHT22;15976;47.938;7.758;2023-07-13T06:19:55;21.80;60.20
28845;DHT22;15976;47.938;7.758;2023-07-13T06:22:22;21.90;59.90
28845;DHT22;15976;47.938;7.758;2023-07-13T06:24:51;22.00;59.70
28845;DHT22;15976;47.938;7.758;2023-07-13T06:27:18;22.20;59.60
28845;DHT22;15976;47.938;7.758;2023-07-13T06:29:51;22.30;59.30
28845;DHT22;15976;47.938;7.758;2023-07-13T06:32:18;22.40;59.00
28845;DHT22;15976;47.938;7.758;2023-07-13T06:34:46;22.40;59.00
28845;DHT22;15976;47.938;7.758;2023-07-13T06:37:14;22.50;58.60
28845;DHT22;15976;47.938;7.758;2023-07-13T06:39:41;22.50;58.50
28845;DHT22;15976;47.938;7.758;2023-07-13T06:42:08;22.60;58.10
28845;DHT22;15976;47.938;7.758;2023-07-13T06:44:38;22.60;57.70
28845;DHT22;15976;47.938;7.758;2023-07-13T06:47:06;22.70;57.10
28845;DHT22;15976;47.938;7.758;2023-07-13T06:49:36;22.80;56.90
28845;DHT22;15976;47.938;7.758;2023-07-13T06:52:05;22.80;56.60
28845;DHT22;15976;47.938;7.758;2023-07-13T06:54:32;22.80;56.20
28845;DHT22;15976;47.938;7.758;2023-07-13T06:56:59;22.90;56.40
28845;DHT22;15976;47.938;7.758;2023-07-13T06:59:26;23.00;56.20
28845;DHT22;15976;47.938;7.758;2023-07-13T07:01:54;23.00;55.90
28845;DHT22;15976;47.938;7.758;2023-07-13T07:04:23;23.20;55.90
28845;DHT22;15976;47.938;7.758;2023-07-13T07:06:51;23.30;55.70
28845;DHT22;15976;47.938;7.758;2023-07-13T07:09:18;23.40;55.50
28845;DHT22;15976;47.938;7.758;2023-07-13T07:12:02;23.50;55.70
28845;DHT22;15976;47.938;7.758;2023-07-13T07:15:23;23.60;55.50
28845;DHT22;15976;47.938;7.758;2023-07-13T07:18:44;23.90;54.30
28845;DHT22;15976;47.938;7.758;2023-07-13T07:21:13;23.90;54.10
28845;DHT22;15976;47.938;7.758;2023-07-13T07:23:44;24.10;53.60
28845;DHT22;15976;47.938;7.758;2023-07-13T07:26:13;24.10;53.20
28845;DHT22;15976;47.938;7.758;2023-07-13T07:28:46;24.20;53.20
28845;DHT22;15976;47.938;7.758;2023-07-13T07:31:59;24.40;52.60
28845;DHT22;15976;47.938;7.758;2023-07-13T07:35:03;24.50;52.80
28845;DHT22;15976;47.938;7.758;2023-07-13T07:37:44;24.80;51.80
28845;DHT22;15976;47.938;7.758;2023-07-13T07:40:26;25.00;51.30
28845;DHT22;15976;47.938;7.758;2023-07-13T07:43:11;25.30;51.80
28845;DHT22;15976;47.938;7.758;2023-07-13T07:45:49;25.50;50.90
28845;DHT22;15976;47.938;7.758;2023-07-13T07:51:23;26.10;49.30
28845;DHT22;15976;47.938;7.758;2023-07-13T07:54:11;26.40;47.90
28845;DHT22;15976;47.938;7.758;2023-07-13T07:57:14;26.60;47.20
28845;DHT22;15976;47.938;7.758;2023-07-13T07:59:45;27.10;46.80
28845;DHT22;15976;47.938;7.758;2023-07-13T08:02:52;27.40;46.20
28845;DHT22;15976;47.938;7.758;2023-07-13T08:05:52;27.80;45.20
28845;DHT22;15976;47.938;7.758;2023-07-13T08:08:40;28.10;44.80
28845;DHT22;15976;47.938;7.758;2023-07-13T08:11:18;28.40;44.20
28845;DHT22;15976;47.938;7.758;2023-07-13T08:14:17;28.60;43.90
28845;DHT22;15976;47.938;7.758;2023-07-13T08:17:09;28.80;43.30
28845;DHT22;15976;47.938;7.758;2023-07-13T08:19:42;29.10;42.90
28845;DHT22;15976;47.938;7.758;2023-07-13T08:22:17;29.40;42.60
28845;DHT22;15976;47.938;7.758;2023-07-13T08:25:02;29.60;42.10
28845;DHT22;15976;47.938;7.758;2023-07-13T08:27:47;30.00;41.80
28845;DHT22;15976;47.938;7.758;2023-07-13T08:30:41;30.40;41.20
28845;DHT22;15976;47.938;7.758;2023-07-13T08:33:58;30.80;40.50
28845;DHT22;15976;47.938;7.758;2023-07-13T08:36:42;31.00;39.50
28845;DHT22;15976;47.938;7.758;2023-07-13T08:39:16;31.20;38.80
28845;DHT22;15976;47.938;7.758;2023-07-13T08:42:01;31.10;38.10
28845;DHT22;15976;47.938;7.758;2023-07-13T08:44:55;31.00;38.60
28845;DHT22;15976;47.938;7.758;2023-07-13T08:47:26;31.00;38.30
28845;DHT22;15976;47.938;7.758;2023-07-13T08:49:57;31.30;37.90
28845;DHT22;15976;47.938;7.758;2023-07-13T08:52:51;31.80;37.20
28845;DHT22;15976;47.938;7.758;2023-07-13T08:55:36;32.30;36.50
28845;DHT22;15976;47.938;7.758;2023-07-13T08:58:16;32.80;35.90
28845;DHT22;15976;47.938;7.758;2023-07-13T09:01:15;33.00;35.00
28845;DHT22;15976;47.938;7.758;2023-07-13T09:09:56;33.60;33.40
28845;DHT22;15976;47.938;7.758;2023-07-13T09:16:10;33.70;32.70
28845;DHT22;15976;47.938;7.758;2023-07-13T09:18:46;33.90;31.80
28845;DHT22;15976;47.938;7.758;2023-07-13T09:27:24;33.90;30.10
28845;DHT22;15976;47.938;7.758;2023-07-13T09:30:22;33.60;30.70
28845;DHT22;15976;47.938;7.758;2023-07-13T09:33:21;33.20;31.20
28845;DHT22;15976;47.938;7.758;2023-07-13T09:35:59;33.10;32.10
28845;DHT22;15976;47.938;7.758;2023-07-13T09:45:42;34.50;30.40
28845;DHT22;15976;47.938;7.758;2023-07-13T09:48:32;35.00;30.10
28845;DHT22;15976;47.938;7.758;2023-07-13T09:51:20;35.60;29.80
28845;DHT22;15976;47.938;7.758;2023-07-13T09:54:25;36.20;28.90
28845;DHT22;15976;47.938;7.758;2023-07-13T09:57:22;36.60;28.90
28845;DHT22;15976;47.938;7.758;2023-07-13T10:00:00;36.90;28.30
28845;DHT22;15976;47.938;7.758;2023-07-13T10:02:34;36.90;28.30
28845;DHT22;15976;47.938;7.758;2023-07-13T10:05:11;36.80;28.20
28845;DHT22;15976;47.938;7.758;2023-07-13T10:07:43;36.70;28.00
28845;DHT22;15976;47.938;7.758;2023-07-13T10:10:20;36.60;28.40
28845;DHT22;15976;47.938;7.758;2023-07-13T10:12:49;36.30;27.80
28845;DHT22;15976;47.938;7.758;2023-07-13T10:15:19;35.80;28.00
28845;DHT22;15976;47.938;7.758;2023-07-13T10:22:58;36.50;27.60
28845;DHT22;15976;47.938;7.758;2023-07-13T10:25:33;36.80;27.00
28845;DHT22;15976;47.938;7.758;2023-07-13T10:30:43;37.90;26.30
28845;DHT22;15976;47.938;7.758;2023-07-13T10:33:17;38.70;26.20
28845;DHT22;15976;47.938;7.758;2023-07-13T10:35:59;39.30;25.80
28845;DHT22;15976;47.938;7.758;2023-07-13T10:38:51;39.80;25.40
28845;DHT22;15976;47.938;7.758;2023-07-13T10:41:21;40.40;24.50
28845;DHT22;15976;47.938;7.758;2023-07-13T10:43:52;40.60;24.90
28845;DHT22;15976;47.938;7.758;2023-07-13T10:46:23;41.10;24.50
28845;DHT22;15976;47.938;7.758;2023-07-13T10:49:11;41.50;23.70
28845;DHT22;15976;47.938;7.758;2023-07-13T10:51:46;41.50;23.40
28845;DHT22;15976;47.938;7.758;2023-07-13T10:57:21;42.00;23.20
28845;DHT22;15976;47.938;7.758;2023-07-13T11:00:17;42.70;22.90
28845;DHT22;15976;47.938;7.758;2023-07-13T11:03:00;43.00;22.00
28845;DHT22;15976;47.938;7.758;2023-07-13T11:05:33;42.90;21.50
28845;DHT22;15976;47.938;7.758;2023-07-13T11:08:16;42.90;21.80
28845;DHT22;15976;47.938;7.758;2023-07-13T11:10:55;43.40;21.80
28845;DHT22;15976;47.938;7.758;2023-07-13T11:21:31;44.70;21.10
28845;DHT22;15976;47.938;7.758;2023-07-13T11:24:16;44.40;21.30
28845;DHT22;15976;47.938;7.758;2023-07-13T11:26:51;43.80;21.70
28845;DHT22;15976;47.938;7.758;2023-07-13T11:29:38;43.60;21.20
28845;DHT22;15976;47.938;7.758;2023-07-13T11:32:29;43.90;20.80
28845;DHT22;15976;47.938;7.758;2023-07-13T11:35:18;44.20;20.40
28845;DHT22;15976;47.938;7.758;2023-07-13T11:37:53;44.10;19.70
28845;DHT22;15976;47.938;7.758;2023-07-13T11:40:27;43.20;20.50
28845;DHT22;15976;47.938;7.758;2023-07-13T11:43:01;43.40;21.20
28845;DHT22;15976;47.938;7.758;2023-07-13T11:45:30;43.80;21.00
28845;DHT22;15976;47.938;7.758;2023-07-13T11:48:27;44.20;20.30
28845;DHT22;15976;47.938;7.758;2023-07-13T11:51:05;43.60;20.70
28845;DHT22;15976;47.938;7.758;2023-07-13T11:53:46;42.80;21.40
28845;DHT22;15976;47.938;7.758;2023-07-13T11:56:18;42.70;21.10
28845;DHT22;15976;47.938;7.758;2023-07-13T11:58:54;41.90;20.30
28845;DHT22;15976;47.938;7.758;2023-07-13T12:01:31;40.50;20.80
28845;DHT22;15976;47.938;7.758;2023-07-13T12:04:05;40.40;20.90
28845;DHT22;15976;47.938;7.758;2023-07-13T12:07:23;40.80;21.20
28845;DHT22;15976;47.938;7.758;2023-07-13T12:10:28;41.80;21.00
28845;DHT22;15976;47.938;7.758;2023-07-13T12:15:47;42.50;20.10
28845;DHT22;15976;47.938;7.758;2023-07-13T12:18:28;41.50;20.60
28845;DHT22;15976;47.938;7.758;2023-07-13T12:29:23;41.20;22.10
28845;DHT22;15976;47.938;7.758;2023-07-13T12:32:28;42.60;21.20
28845;DHT22;15976;47.938;7.758;2023-07-13T12:35:17;43.60;21.10
28845;DHT22;15976;47.938;7.758;2023-07-13T12:37:54;44.00;19.50
28845;DHT22;15976;47.938;7.758;2023-07-13T12:40:35;44.10;19.30
28845;DHT22;15976;47.938;7.758;2023-07-13T12:47:25;45.30;18.60
28845;DHT22;15976;47.938;7.758;2023-07-13T12:53:40;44.10;19.00
28845;DHT22;15976;47.938;7.758;2023-07-13T12:56:24;43.30;19.30
28845;DHT22;15976;47.938;7.758;2023-07-13T12:59:02;43.00;19.70
28845;DHT22;15976;47.938;7.758;2023-07-13T13:02:27;43.70;19.60
28845;DHT22;15976;47.938;7.758;2023-07-13T13:05:48;44.90;18.80
28845;DHT22;15976;47.938;7.758;2023-07-13T13:08:20;45.60;18.10
28845;DHT22;15976;47.938;7.758;2023-07-13T13:11:15;45.70;18.10
28845;DHT22;15976;47.938;7.758;2023-07-13T13:13:46;45.20;18.10
28845;DHT22;15976;47.938;7.758;2023-07-13T13:18:59;44.70;19.00
28845;DHT22;15976;47.938;7.758;2023-07-13T13:21:29;45.20;19.50
28845;DHT22;15976;47.938;7.758;2023-07-13T13:24:01;45.70;19.00
28845;DHT22;15976;47.938;7.758;2023-07-13T13:26:36;45.00;18.70
28845;DHT22;15976;47.938;7.758;2023-07-13T13:31:44;42.40;20.80
28845;DHT22;15976;47.938;7.758;2023-07-13T13:34:21;42.50;21.00
28845;DHT22;15976;47.938;7.758;2023-07-13T13:36:51;43.40;20.30
28845;DHT22;15976;47.938;7.758;2023-07-13T13:39:33;44.50;19.40
28845;DHT22;15976;47.938;7.758;2023-07-13T13:42:03;45.00;18.90
28845;DHT22;15976;47.938;7.758;2023-07-13T13:44:31;44.40;19.40
28845;DHT22;15976;47.938;7.758;2023-07-13T13:50:22;43.10;20.10
28845;DHT22;15976;47.938;7.758;2023-07-13T13:52:49;42.50;20.60
28845;DHT22;15976;47.938;7.758;2023-07-13T13:55:21;42.80;20.40
28845;DHT22;15976;47.938;7.758;2023-07-13T13:57:58;42.80;20.70
28845;DHT22;15976;47.938;7.758;2023-07-13T14:00:26;42.00;20.10
28845;DHT22;15976;47.938;7.758;2023-07-13T14:02:53;41.10;20.70
28845;DHT22;15976;47.938;7.758;2023-07-13T14:05:24;40.30;21.30
28845;DHT22;15976;47.938;7.758;2023-07-13T14:07:54;39.70;21.60
28845;DHT22;15976;47.938;7.758;2023-07-13T14:10:27;40.00;21.30
28845;DHT22;15976;47.938;7.758;2023-07-13T14:12:56;40.60;20.60
28845;DHT22;15976;47.938;7.758;2023-07-13T14:15:26;40.60;20.50
28845;DHT22;15976;47.938;7.758;2023-07-13T14:17:54;40.20;20.90
28845;DHT22;15976;47.938;7.758;2023-07-13T14:20:25;39.70;21.50
28845;DHT22;15976;47.938;7.758;2023-07-13T14:22:52;39.60;21.80
28845;DHT22;15976;47.938;7.758;2023-07-13T14:25:21;40.30;21.60
28845;DHT22;15976;47.938;7.758;2023-07-13T14:27:53;41.00;21.20
28845;DHT22;15976;47.938;7.758;2023-07-13T14:30:30;41.00;20.80
28845;DHT22;15976;47.938;7.758;2023-07-13T14:33:00;40.30;20.90
28845;DHT22;15976;47.938;7.758;2023-07-13T14:35:27;39.30;21.40
28845;DHT22;15976;47.938;7.758;2023-07-13T14:38:04;38.50;21.90
28845;DHT22;15976;47.938;7.758;2023-07-13T14:40:33;38.40;22.30
28845;DHT22;15976;47.938;7.758;2023-07-13T14:43:01;38.90;22.10
28845;DHT22;15976;47.938;7.758;2023-07-13T14:45:31;38.70;21.70
28845;DHT22;15976;47.938;7.758;2023-07-13T14:47:59;37.90;22.00
28845;DHT22;15976;47.938;7.758;2023-07-13T14:50:31;37.10;22.50
28845;DHT22;15976;47.938;7.758;2023-07-13T14:52:59;36.60;23.10
28845;DHT22;15976;47.938;7.758;2023-07-13T14:55:26;36.10;23.30
28845;DHT22;15976;47.938;7.758;2023-07-13T14:57:54;35.50;23.70
28845;DHT22;15976;47.938;7.758;2023-07-13T15:00:22;35.30;24.40
28845;DHT22;15976;47.938;7.758;2023-07-13T15:03:00;36.00;24.60
28845;DHT22;15976;47.938;7.758;2023-07-13T15:05:31;36.80;23.90
28845;DHT22;15976;47.938;7.758;2023-07-13T15:08:02;37.70;23.60
28845;DHT22;15976;47.938;7.758;2023-07-13T15:10:32;38.40;23.30
28845;DHT22;15976;47.938;7.758;2023-07-13T15:13:22;38.80;23.40
28845;DHT22;15976;47.938;7.758;2023-07-13T15:15:51;39.20;23.30
28845;DHT22;15976;47.938;7.758;2023-07-13T15:18:22;39.20;23.10
28845;DHT22;15976;47.938;7.758;2023-07-13T15:20:51;38.60;23.40
28845;DHT22;15976;47.938;7.758;2023-07-13T15:23:19;37.90;24.00
28845;DHT22;15976;47.938;7.758;2023-07-13T15:25:46;37.30;24.50
28845;DHT22;15976;47.938;7.758;2023-07-13T15:28:14;36.80;24.80
28845;DHT22;15976;47.938;7.758;2023-07-13T15:30:44;36.20;25.00
28845;DHT22;15976;47.938;7.758;2023-07-13T15:33:27;35.70;25.30
28845;DHT22;15976;47.938;7.758;2023-07-13T15:35:55;35.30;25.90
28845;DHT22;15976;47.938;7.758;2023-07-13T15:38:27;35.10;26.20
28845;DHT22;15976;47.938;7.758;2023-07-13T15:40:58;34.90;26.70
28845;DHT22;15976;47.938;7.758;2023-07-13T15:43:39;34.70;27.30
28845;DHT22;15976;47.938;7.758;2023-07-13T15:46:06;34.60;27.50
28845;DHT22;15976;47.938;7.758;2023-07-13T15:48:34;34.50;27.70
28845;DHT22;15976;47.938;7.758;2023-07-13T15:51:11;34.30;28.00
28845;DHT22;15976;47.938;7.758;2023-07-13T15:53:39;34.10;27.90
28845;DHT22;15976;47.938;7.758;2023-07-13T15:56:22;33.80;28.00
28845;DHT22;15976;47.938;7.758;2023-07-13T15:58:53;33.50;28.20
28845;DHT22;15976;47.938;7.758;2023-07-13T16:01:38;33.20;28.40
28845;DHT22;15976;47.938;7.758;2023-07-13T16:04:09;33.10;28.70
28845;DHT22;15976;47.938;7.758;2023-07-13T16:06:40;33.10;28.90
28845;DHT22;15976;47.938;7.758;2023-07-13T16:09:20;33.00;29.00
28845;DHT22;15976;47.938;7.758;2023-07-13T16:11:50;32.80;28.80
28845;DHT22;15976;47.938;7.758;2023-07-13T16:14:19;32.60;29.00
28845;DHT22;15976;47.938;7.758;2023-07-13T16:16:51;32.40;29.20
28845;DHT22;15976;47.938;7.758;2023-07-13T16:19:53;32.30;29.50
28845;DHT22;15976;47.938;7.758;2023-07-13T16:22:50;32.30;29.70
28845;DHT22;15976;47.938;7.758;2023-07-13T16:25:24;32.30;29.70
28845;DHT22;15976;47.938;7.758;2023-07-13T16:27:53;32.40;29.80
28845;DHT22;15976;47.938;7.758;2023-07-13T16:30:30;32.30;29.60
28845;DHT22;15976;47.938;7.758;2023-07-13T16:33:04;32.30;29.70
28845;DHT22;15976;47.938;7.758;2023-07-13T16:35:39;32.10;29.70
28845;DHT22;15976;47.938;7.758;2023-07-13T16:38:15;31.90;29.90
28845;DHT22;15976;47.938;7.758;2023-07-13T16:40:45;31.90;30.20
28845;DHT22;15976;47.938;7.758;2023-07-13T16:43:18;31.80;30.20
28845;DHT22;15976;47.938;7.758;2023-07-13T16:45:52;31.70;30.30
28845;DHT22;15976;47.938;7.758;2023-07-13T16:48:27;31.70;30.00
28845;DHT22;15976;47.938;7.758;2023-07-13T16:50:57;31.60;30.00
28845;DHT22;15976;47.938;7.758;2023-07-13T16:53:28;31.50;29.90
28845;DHT22;15976;47.938;7.758;2023-07-13T16:56:05;31.40;29.90
28845;DHT22;15976;47.938;7.758;2023-07-13T16:58:46;31.30;30.10
28845;DHT22;15976;47.938;7.758;2023-07-13T17:01:16;31.20;30.20
28845;DHT22;15976;47.938;7.758;2023-07-13T17:03:43;31.20;30.30
28845;DHT22;15976;47.938;7.758;2023-07-13T17:06:30;31.10;30.40
28845;DHT22;15976;47.938;7.758;2023-07-13T17:08:57;31.00;30.40
28845;DHT22;15976;47.938;7.758;2023-07-13T17:11:32;30.80;30.40
28845;DHT22;15976;47.938;7.758;2023-07-13T17:14:00;30.60;30.40
28845;DHT22;15976;47.938;7.758;2023-07-13T17:16:38;30.40;30.60
28845;DHT22;15976;47.938;7.758;2023-07-13T17:19:11;30.20;31.10
28845;DHT22;15976;47.938;7.758;2023-07-13T17:21:39;30.10;31.40
28845;DHT22;15976;47.938;7.758;2023-07-13T17:24:26;29.90;31.50